sensor_id;sensor_type;location;lat;lon;timestamp;temperature;humidity
11963;DHT22;62678;52.130;5.584;2023-05-21T00:01:14;15.80;99.90
11963;DHT22;62678;52.130;5.584;2023-05-21T00:03:41;15.70;99.90
11963;DHT22;62678;52.130;5.584;2023-05-21T00:06:10;15.70;99.90
11963;DHT22;62678;52.130;5.584;2023-05-21T00:08:37;15.80;99.90
11963;DHT22;62678;52.130;5.584;2023-05-21T00:11:04;15.80;99.90
11963;DHT22;62678;52.130;5.584;2023-05-21T00:13:31;15.80;99.90
11963;DHT22;62678;52.130;5.584;2023-05-21T00:16:00;15.70;99.90
11963;DHT22;62678;52.130;5.584;2023-05-21T00:18:26;15.80;99.90
11963;DHT22;62678;52.130;5.584;2023-05-21T00:20:56;15.80;99.90
11963;DHT22;62678;52.130;5.584;2023-05-21T00:23:23;15.70;99.90
11963;DHT22;62678;52.130;5.584;2023-05-21T00:25:51;15.70;99.90
11963;DHT22;62678;52.130;5.584;2023-05-21T00:28:18;15.60;99.90
11963;DHT22;62678;52.130;5.584;2023-05-21T00:30:44;15.70;99.90
11963;DHT22;62678;52.130;5.584;2023-05-21T00:33:15;15.80;99.90
11963;DHT22;62678;52.130;5.584;2023-05-21T00:35:41;15.70;99.90
11963;DHT22;62678;52.130;5.584;2023-05-21T00:38:08;15.60;99.90
11963;DHT22;62678;52.130;5.584;2023-05-21T00:40:35;15.40;99.90
11963;DHT22;62678;52.130;5.584;2023-05-21T00:43:05;15.40;99.90
11963;DHT22;62678;52.130;5.584;2023-05-21T00:45:34;15.40;99.90
11963;DHT22;62678;52.130;5.584;2023-05-21T00:48:01;15.50;99.90
11963;DHT22;62678;52.130;5.584;2023-05-21T00:50:30;15.50;99.90
11963;DHT22;62678;52.130;5.584;2023-05-21T00:52:57;15.50;99.90
11963;DHT22;62678;52.130;5.584;2023-05-21T00:55:24;15.50;99.90
11963;DHT22;62678;52.130;5.584;2023-05-21T00:57:51;15.50;99.90
11963;DHT22;62678;52.130;5.584;2023-05-21T01:00:18;15.50;99.90
11963;DHT22;62678;52.130;5.584;2023-05-21T01:02:45;15.40;99.90
11963;DHT22;62678;52.130;5.584;2023-05-21T01:05:12;15.40;99.90
11963;DHT22;62678;52.130;5.584;2023-05-21T01:07:42;15.40;99.90
11963;DHT22;62678;52.130;5.584;2023-05-21T01:10:09;15.20;99.90
11963;DHT22;62678;52.130;5.584;2023-05-21T01:12:38;15.20;99.90
11963;DHT22;62678;52.130;5.584;2023-05-21T01:15:08;15.20;99.90
11963;DHT22;62678;52.130;5.584;2023-05-21T01:17:36;15.20;99.90
11963;DHT22;62678;52.130;5.584;2023-05-21T01:20:05;15.30;99.90
11963;DHT22;62678;52.130;5.584;2023-05-21T01:22:36;15.30;99.90
11963;DHT22;62678;52.130;5.584;2023-05-21T01:25:06;15.20;99.90
11963;DHT22;62678;52.130;5.584;2023-05-21T01:27:33;15.20;99.90
11963;DHT22;62678;52.130;5.584;2023-05-21T01:29:59;15.20;99.90
11963;DHT22;62678;52.130;5.584;2023-05-21T01:32:32;15.30;99.90
11963;DHT22;62678;52.130;5.584;2023-05-21T01:35:04;15.20;99.90
11963;DHT22;62678;52.130;5.584;2023-05-21T01:37:37;15.30;99.90
11963;DHT22;62678;52.130;5.584;2023-05-21T01:40:12;15.20;99.90
11963;DHT22;62678;52.130;5.584;2023-05-21T01:42:42;15.20;99.90
11963;DHT22;62678;52.130;5.584;2023-05-21T01:45:10;15.20;99.90
11963;DHT22;62678;52.130;5.584;2023-05-21T01:47:38;15.10;99.90
11963;DHT22;62678;52.130;5.584;2023-05-21T01:50:06;15.20;99.90
11963;DHT22;62678;52.130;5.584;2023-05-21T01:52:35;15.20;99.90
11963;DHT22;62678;52.130;5.584;2023-05-21T01:55:02;15.30;99.90
11963;DHT22;62678;52.130;5.584;2023-05-21T01:57:30;15.10;99.90
11963;DHT22;62678;52.130;5.584;2023-05-21T01:59:57;15.10;99.90
11963;DHT22;62678;52.130;5.584;2023-05-21T02:02:25;15.10;99.90
11963;DHT22;62678;52.130;5.584;2023-05-21T02:04:52;15.10;99.90
11963;DHT22;62678;52.130;5.584;2023-05-21T02:07:19;15.10;99.90
11963;DHT22;62678;52.130;5.584;2023-05-21T02:09:47;15.10;99.90
11963;DHT22;62678;52.130;5.584;2023-05-21T02:12:14;15.10;99.90
11963;DHT22;62678;52.130;5.584;2023-05-21T02:14:42;15.20;99.90
11963;DHT22;62678;52.130;5.584;2023-05-21T02:17:11;15.10;99.90
11963;DHT22;62678;52.130;5.584;2023-05-21T02:19:38;15.10;99.90
11963;DHT22;62678;52.130;5.584;2023-05-21T02:22:06;15.10;99.90
11963;DHT22;62678;52.130;5.584;2023-05-21T02:24:33;15.00;99.90
11963;DHT22;62678;52.130;5.584;2023-05-21T02:26:59;14.90;99.90
11963;DHT22;62678;52.130;5.584;2023-05-21T02:29:27;15.00;99.90
11963;DHT22;62678;52.130;5.584;2023-05-21T02:31:55;15.00;99.90
11963;DHT22;62678;52.130;5.584;2023-05-21T02:34:22;15.00;99.90
11963;DHT22;62678;52.130;5.584;2023-05-21T02:36:49;15.10;99.90
11963;DHT22;62678;52.130;5.584;2023-05-21T02:39:16;15.00;99.90
11963;DHT22;62678;52.130;5.584;2023-05-21T02:41:44;15.00;99.90
11963;DHT22;62678;52.130;5.584;2023-05-21T02:44:11;14.90;99.90
11963;DHT22;62678;52.130;5.584;2023-05-21T02:46:38;14.90;99.90
11963;DHT22;62678;52.130;5.584;2023-05-21T02:49:06;14.90;99.90
11963;DHT22;62678;52.130;5.584;2023-05-21T02:51:32;14.80;99.90
11963;DHT22;62678;52.130;5.584;2023-05-21T02:53:59;14.90;99.90
11963;DHT22;62678;52.130;5.584;2023-05-21T02:56:26;14.90;99.90
11963;DHT22;62678;52.130;5.584;2023-05-21T02:58:53;14.90;99.90
11963;DHT22;62678;52.130;5.584;2023-05-21T03:01:20;14.90;99.90
11963;DHT22;62678;52.130;5.584;2023-05-21T03:03:46;15.00;99.90
11963;DHT22;62678;52.130;5.584;2023-05-21T03:06:15;15.00;99.90
11963;DHT22;62678;52.130;5.584;2023-05-21T03:08:42;14.90;99.90
11963;DHT22;62678;52.130;5.584;2023-05-21T03:11:08;14.90;99.90
11963;DHT22;62678;52.130;5.584;2023-05-21T03:13:35;14.90;99.90
11963;DHT22;62678;52.130;5.584;2023-05-21T03:16:02;14.80;99.90
11963;DHT22;62678;52.130;5.584;2023-05-21T03:18:29;14.80;99.90
11963;DHT22;62678;52.130;5.584;2023-05-21T03:20:56;14.80;99.90
11963;DHT22;62678;52.130;5.584;2023-05-21T03:23:24;14.90;99.90
11963;DHT22;62678;52.130;5.584;2023-05-21T03:25:51;14.90;99.90
11963;DHT22;62678;52.130;5.584;2023-05-21T03:28:18;14.90;99.90
11963;DHT22;62678;52.130;5.584;2023-05-21T03:30:46;14.90;99.90
11963;DHT22;62678;52.130;5.584;2023-05-21T03:33:14;14.90;99.90
11963;DHT22;62678;52.130;5.584;2023-05-21T03:35:41;14.90;99.90
11963;DHT22;62678;52.130;5.584;2023-05-21T03:38:08;14.90;99.90
11963;DHT22;62678;52.130;5.584;2023-05-21T03:40:36;14.80;99.90
11963;DHT22;62678;52.130;5.584;2023-05-21T03:43:03;14.80;99.90
11963;DHT22;62678;52.130;5.584;2023-05-21T03:45:29;14.80;99.90
11963;DHT22;62678;52.130;5.584;2023-05-21T03:47:56;14.80;99.90
11963;DHT22;62678;52.130;5.584;2023-05-21T03:50:23;14.80;99.90
11963;DHT22;62678;52.130;5.584;2023-05-21T03:52:50;14.90;99.90
11963;DHT22;62678;52.130;5.584;2023-05-21T03:55:17;14.80;99.90
11963;DHT22;62678;52.130;5.584;2023-05-21T03:57:45;14.80;99.90
11963;DHT22;62678;52.130;5.584;2023-05-21T04:00:12;14.90;99.90
11963;DHT22;62678;52.130;5.584;2023-05-21T04:02:39;14.80;99.90
11963;DHT22;62678;52.130;5.584;2023-05-21T04:05:06;14.80;99.90
11963;DHT22;62678;52.130;5.584;2023-05-21T04:07:33;14.90;99.90
11963;DHT22;62678;52.130;5.584;2023-05-21T04:10:03;14.80;99.90
11963;DHT22;62678;52.130;5.584;2023-05-21T04:12:30;14.80;99.90
11963;DHT22;62678;52.130;5.584;2023-05-21T04:14:58;14.80;99.90
11963;DHT22;62678;52.130;5.584;2023-05-21T04:17:27;14.90;99.90
11963;DHT22;62678;52.130;5.584;2023-05-21T04:19:54;14.90;99.90
11963;DHT22;62678;52.130;5.584;2023-05-21T04:22:20;15.00;99.90
11963;DHT22;62678;52.130;5.584;2023-05-21T04:24:51;15.00;99.90
11963;DHT22;62678;52.130;5.584;2023-05-21T04:27:19;15.00;99.90
11963;DHT22;62678;52.130;5.584;2023-05-21T04:29:48;14.90;99.90
11963;DHT22;62678;52.130;5.584;2023-05-21T04:32:16;14.90;99.90
11963;DHT22;62678;52.130;5.584;2023-05-21T04:34:43;14.90;99.90
11963;DHT22;62678;52.130;5.584;2023-05-21T04:37:10;15.00;99.90
11963;DHT22;62678;52.130;5.584;2023-05-21T04:39:37;14.90;99.90
11963;DHT22;62678;52.130;5.584;2023-05-21T04:42:05;15.00;99.90
11963;DHT22;62678;52.130;5.584;2023-05-21T04:44:35;14.90;99.90
11963;DHT22;62678;52.130;5.584;2023-05-21T04:47:02;14.80;99.90
11963;DHT22;62678;52.130;5.584;2023-05-21T04:49:30;14.90;99.90
11963;DHT22;62678;52.130;5.584;2023-05-21T04:51:59;15.10;99.90
11963;DHT22;62678;52.130;5.584;2023-05-21T04:54:26;15.10;99.90
11963;DHT22;62678;52.130;5.584;2023-05-21T04:56:53;15.10;99.90
11963;DHT22;62678;52.130;5.584;2023-05-21T04:59:20;15.00;99.90
11963;DHT22;62678;52.130;5.584;2023-05-21T05:01:47;15.00;99.90
11963;DHT22;62678;52.130;5.584;2023-05-21T05:04:14;15.10;99.90
11963;DHT22;62678;52.130;5.584;2023-05-21T05:06:42;15.10;99.90
11963;DHT22;62678;52.130;5.584;2023-05-21T05:09:09;15.20;99.90
11963;DHT22;62678;52.130;5.584;2023-05-21T05:11:36;15.10;99.90
11963;DHT22;62678;52.130;5.584;2023-05-21T05:14:02;15.10;99.90
11963;DHT22;62678;52.130;5.584;2023-05-21T05:16:29;15.10;99.90
11963;DHT22;62678;52.130;5.584;2023-05-21T05:18:56;15.20;99.90
11963;DHT22;62678;52.130;5.584;2023-05-21T05:21:23;15.20;99.90
11963;DHT22;62678;52.130;5.584;2023-05-21T05:23:51;15.30;99.90
11963;DHT22;62678;52.130;5.584;2023-05-21T05:26:18;15.30;99.90
11963;DHT22;62678;52.130;5.584;2023-05-21T05:28:46;15.30;99.90
11963;DHT22;62678;52.130;5.584;2023-05-21T05:31:12;15.40;99.90
11963;DHT22;62678;52.130;5.584;2023-05-21T05:33:41;15.30;99.90
11963;DHT22;62678;52.130;5.584;2023-05-21T05:36:08;15.40;99.90
11963;DHT22;62678;52.130;5.584;2023-05-21T05:38:34;15.40;99.90
11963;DHT22;62678;52.130;5.584;2023-05-21T05:41:03;15.40;99.90
11963;DHT22;62678;52.130;5.584;2023-05-21T05:43:29;15.60;99.90
11963;DHT22;62678;52.130;5.584;2023-05-21T05:45:56;15.50;99.90
11963;DHT22;62678;52.130;5.584;2023-05-21T05:48:23;15.60;99.90
11963;DHT22;62678;52.130;5.584;2023-05-21T05:50:50;15.60;99.90
11963;DHT22;62678;52.130;5.584;2023-05-21T05:53:19;15.60;99.90
11963;DHT22;62678;52.130;5.584;2023-05-21T05:55:45;15.60;99.90
11963;DHT22;62678;52.130;5.584;2023-05-21T05:58:14;15.70;99.90
11963;DHT22;62678;52.130;5.584;2023-05-21T06:00:43;16.00;99.90
11963;DHT22;62678;52.130;5.584;2023-05-21T06:03:10;16.10;99.90
11963;DHT22;62678;52.130;5.584;2023-05-21T06:05:37;16.10;99.90
11963;DHT22;62678;52.130;5.584;2023-05-21T06:08:05;16.00;99.90
11963;DHT22;62678;52.130;5.584;2023-05-21T06:10:31;16.00;99.90
11963;DHT22;62678;52.130;5.584;2023-05-21T06:12:58;16.10;99.90
11963;DHT22;62678;52.130;5.584;2023-05-21T06:15:26;16.20;99.90
11963;DHT22;62678;52.130;5.584;2023-05-21T06:17:53;16.10;99.90
11963;DHT22;62678;52.130;5.584;2023-05-21T06:20:20;16.20;99.90
11963;DHT22;62678;52.130;5.584;2023-05-21T06:22:47;16.50;99.90
11963;DHT22;62678;52.130;5.584;2023-05-21T06:25:14;16.50;99.90
11963;DHT22;62678;52.130;5.584;2023-05-21T06:27:40;16.60;99.90
11963;DHT22;62678;52.130;5.584;2023-05-21T06:30:08;16.70;99.90
11963;DHT22;62678;52.130;5.584;2023-05-21T06:32:36;16.70;99.90
11963;DHT22;62678;52.130;5.584;2023-05-21T06:35:03;16.70;99.90
11963;DHT22;62678;52.130;5.584;2023-05-21T06:37:30;16.90;99.90
11963;DHT22;62678;52.130;5.584;2023-05-21T06:39:57;16.90;99.90
11963;DHT22;62678;52.130;5.584;2023-05-21T06:42:24;17.00;99.90
11963;DHT22;62678;52.130;5.584;2023-05-21T06:44:51;17.00;99.90
11963;DHT22;62678;52.130;5.584;2023-05-21T06:47:17;17.00;99.90
11963;DHT22;62678;52.130;5.584;2023-05-21T06:49:46;16.70;99.90
11963;DHT22;62678;52.130;5.584;2023-05-21T06:52:12;16.60;99.90
11963;DHT22;62678;52.130;5.584;2023-05-21T06:54:39;16.70;99.90
11963;DHT22;62678;52.130;5.584;2023-05-21T06:57:07;17.10;99.90
11963;DHT22;62678;52.130;5.584;2023-05-21T06:59:33;17.10;99.90
11963;DHT22;62678;52.130;5.584;2023-05-21T07:02:01;17.20;99.90
11963;DHT22;62678;52.130;5.584;2023-05-21T07:04:28;17.20;99.90
11963;DHT22;62678;52.130;5.584;2023-05-21T07:06:56;17.10;99.90
11963;DHT22;62678;52.130;5.584;2023-05-21T07:09:23;17.20;99.90
11963;DHT22;62678;52.130;5.584;2023-05-21T07:11:50;17.20;99.90
11963;DHT22;62678;52.130;5.584;2023-05-21T07:14:17;17.20;99.90
11963;DHT22;62678;52.130;5.584;2023-05-21T07:16:44;17.20;99.90
11963;DHT22;62678;52.130;5.584;2023-05-21T07:19:11;17.30;99.90
11963;DHT22;62678;52.130;5.584;2023-05-21T07:21:38;17.30;99.90
11963;DHT22;62678;52.130;5.584;2023-05-21T07:24:06;17.30;99.90
11963;DHT22;62678;52.130;5.584;2023-05-21T07:26:33;17.40;99.90
11963;DHT22;62678;52.130;5.584;2023-05-21T07:29:00;17.40;99.90
11963;DHT22;62678;52.130;5.584;2023-05-21T07:31:27;17.60;99.90
11963;DHT22;62678;52.130;5.584;2023-05-21T07:33:53;17.60;99.90
11963;DHT22;62678;52.130;5.584;2023-05-21T07:36:20;17.60;99.90
11963;DHT22;62678;52.130;5.584;2023-05-21T07:38:47;17.70;99.90
11963;DHT22;62678;52.130;5.584;2023-05-21T07:41:15;18.00;99.90
11963;DHT22;62678;52.130;5.584;2023-05-21T07:43:42;18.00;99.90
11963;DHT22;62678;52.130;5.584;2023-05-21T07:46:09;18.30;99.90
11963;DHT22;62678;52.130;5.584;2023-05-21T07:48:36;18.30;99.90
11963;DHT22;62678;52.130;5.584;2023-05-21T07:51:03;18.40;99.90
11963;DHT22;62678;52.130;5.584;2023-05-21T07:53:30;18.30;99.90
11963;DHT22;62678;52.130;5.584;2023-05-21T07:55:58;18.30;99.90
11963;DHT22;62678;52.130;5.584;2023-05-21T07:58:26;17.90;99.90
11963;DHT22;62678;52.130;5.584;2023-05-21T08:00:53;18.00;99.90
11963;DHT22;62678;52.130;5.584;2023-05-21T08:03:20;18.00;99.90
11963;DHT22;62678;52.130;5.584;2023-05-21T08:05:47;18.10;99.90
11963;DHT22;62678;52.130;5.584;2023-05-21T08:08:15;17.90;99.90
11963;DHT22;62678;52.130;5.584;2023-05-21T08:10:42;18.00;99.90
11963;DHT22;62678;52.130;5.584;2023-05-21T08:13:10;17.90;99.90
11963;DHT22;62678;52.130;5.584;2023-05-21T08:15:38;17.80;99.90
11963;DHT22;62678;52.130;5.584;2023-05-21T08:18:05;18.00;99.90
11963;DHT22;62678;52.130;5.584;2023-05-21T08:20:32;18.30;99.90
11963;DHT22;62678;52.130;5.584;2023-05-21T08:22:59;18.10;99.90
11963;DHT22;62678;52.130;5.584;2023-05-21T08:25:26;18.20;99.90
11963;DHT22;62678;52.130;5.584;2023-05-21T08:27:53;18.30;99.90
11963;DHT22;62678;52.130;5.584;2023-05-21T08:30:20;18.10;99.90
11963;DHT22;62678;52.130;5.584;2023-05-21T08:32:48;18.50;99.90
11963;DHT22;62678;52.130;5.584;2023-05-21T08:35:15;18.70;99.90
11963;DHT22;62678;52.130;5.584;2023-05-21T08:37:42;18.60;99.90
11963;DHT22;62678;52.130;5.584;2023-05-21T08:40:10;18.70;99.90
11963;DHT22;62678;52.130;5.584;2023-05-21T08:42:41;18.80;99.90
11963;DHT22;62678;52.130;5.584;2023-05-21T08:45:10;19.30;99.90
11963;DHT22;62678;52.130;5.584;2023-05-21T08:47:40;19.50;99.90
11963;DHT22;62678;52.130;5.584;2023-05-21T08:50:10;19.70;99.90
11963;DHT22;62678;52.130;5.584;2023-05-21T08:52:37;19.90;99.90
11963;DHT22;62678;52.130;5.584;2023-05-21T08:55:05;19.90;99.90
11963;DHT22;62678;52.130;5.584;2023-05-21T08:57:32;20.10;99.90
11963;DHT22;62678;52.130;5.584;2023-05-21T08:59:59;20.00;99.90
11963;DHT22;62678;52.130;5.584;2023-05-21T09:02:32;19.80;99.90
11963;DHT22;62678;52.130;5.584;2023-05-21T09:04:59;20.00;99.90
11963;DHT22;62678;52.130;5.584;2023-05-21T09:07:30;20.20;99.90
11963;DHT22;62678;52.130;5.584;2023-05-21T09:10:02;20.30;99.90
11963;DHT22;62678;52.130;5.584;2023-05-21T09:12:31;20.40;99.90
11963;DHT22;62678;52.130;5.584;2023-05-21T09:14:58;20.50;99.90
11963;DHT22;62678;52.130;5.584;2023-05-21T09:17:25;20.50;99.90
11963;DHT22;62678;52.130;5.584;2023-05-21T09:20:10;20.60;99.90
11963;DHT22;62678;52.130;5.584;2023-05-21T09:22:40;20.60;99.90
11963;DHT22;62678;52.130;5.584;2023-05-21T09:25:09;20.60;99.90
11963;DHT22;62678;52.130;5.584;2023-05-21T09:27:36;20.60;99.90
11963;DHT22;62678;52.130;5.584;2023-05-21T09:30:08;20.60;99.90
11963;DHT22;62678;52.130;5.584;2023-05-21T09:32:35;20.90;99.90
11963;DHT22;62678;52.130;5.584;2023-05-21T09:35:06;20.90;99.90
11963;DHT22;62678;52.130;5.584;2023-05-21T09:37:36;21.00;99.90
11963;DHT22;62678;52.130;5.584;2023-05-21T09:40:11;21.00;99.90
11963;DHT22;62678;52.130;5.584;2023-05-21T09:42:38;21.30;99.90
11963;DHT22;62678;52.130;5.584;2023-05-21T09:45:06;21.50;99.90
11963;DHT22;62678;52.130;5.584;2023-05-21T09:47:33;21.60;99.90
11963;DHT22;62678;52.130;5.584;2023-05-21T09:50:00;21.80;99.90
11963;DHT22;62678;52.130;5.584;2023-05-21T09:52:27;21.70;99.90
11963;DHT22;62678;52.130;5.584;2023-05-21T09:54:55;22.00;99.90
11963;DHT22;62678;52.130;5.584;2023-05-21T09:57:26;21.60;99.90
11963;DHT22;62678;52.130;5.584;2023-05-21T09:59:53;21.60;99.90
11963;DHT22;62678;52.130;5.584;2023-05-21T10:02:21;21.80;99.90
11963;DHT22;62678;52.130;5.584;2023-05-21T10:04:50;21.70;99.90
11963;DHT22;62678;52.130;5.584;2023-05-21T10:07:20;21.80;99.90
11963;DHT22;62678;52.130;5.584;2023-05-21T10:09:52;21.90;99.90
11963;DHT22;62678;52.130;5.584;2023-05-21T10:12:22;22.00;99.90
11963;DHT22;62678;52.130;5.584;2023-05-21T10:14:55;21.80;99.90
11963;DHT22;62678;52.130;5.584;2023-05-21T10:17:26;21.90;99.90
11963;DHT22;62678;52.130;5.584;2023-05-21T10:19:54;21.80;99.90
11963;DHT22;62678;52.130;5.584;2023-05-21T10:22:22;21.90;99.90
11963;DHT22;62678;52.130;5.584;2023-05-21T10:24:49;22.00;99.90
11963;DHT22;62678;52.130;5.584;2023-05-21T10:27:18;22.40;99.90
11963;DHT22;62678;52.130;5.584;2023-05-21T10:29:46;22.20;99.90
11963;DHT22;62678;52.130;5.584;2023-05-21T10:32:15;22.30;99.90
11963;DHT22;62678;52.130;5.584;2023-05-21T10:34:43;22.50;99.90
11963;DHT22;62678;52.130;5.584;2023-05-21T10:37:12;22.70;99.90
11963;DHT22;62678;52.130;5.584;2023-05-21T10:39:39;22.70;99.90
11963;DHT22;62678;52.130;5.584;2023-05-21T10:42:16;22.70;99.90
11963;DHT22;62678;52.130;5.584;2023-05-21T10:44:58;22.80;99.90
11963;DHT22;62678;52.130;5.584;2023-05-21T10:47:52;22.80;99.90
11963;DHT22;62678;52.130;5.584;2023-05-21T10:53:23;22.80;99.90
11963;DHT22;62678;52.130;5.584;2023-05-21T10:55:59;23.10;99.90
11963;DHT22;62678;52.130;5.584;2023-05-21T10:58:55;23.10;99.90
11963;DHT22;62678;52.130;5.584;2023-05-21T11:01:28;23.10;99.90
11963;DHT22;62678;52.130;5.584;2023-05-21T11:03:59;23.20;99.90
11963;DHT22;62678;52.130;5.584;2023-05-21T11:06:26;22.70;99.90
11963;DHT22;62678;52.130;5.584;2023-05-21T11:09:00;22.80;99.90
11963;DHT22;62678;52.130;5.584;2023-05-21T11:11:44;23.20;99.90
11963;DHT22;62678;52.130;5.584;2023-05-21T11:14:32;23.10;99.90
11963;DHT22;62678;52.130;5.584;2023-05-21T11:17:08;23.30;99.90
11963;DHT22;62678;52.130;5.584;2023-05-21T11:19:38;24.00;99.90
11963;DHT22;62678;52.130;5.584;2023-05-21T11:22:19;23.90;99.90
11963;DHT22;62678;52.130;5.584;2023-05-21T11:24:46;24.20;99.90
11963;DHT22;62678;52.130;5.584;2023-05-21T11:27:29;24.30;99.90
11963;DHT22;62678;52.130;5.584;2023-05-21T11:29:56;24.10;99.90
11963;DHT22;62678;52.130;5.584;2023-05-21T11:32:23;23.80;99.90
11963;DHT22;62678;52.130;5.584;2023-05-21T11:34:51;23.40;99.90
11963;DHT22;62678;52.130;5.584;2023-05-21T11:37:23;23.50;99.90
11963;DHT22;62678;52.130;5.584;2023-05-21T11:39:52;23.40;99.90
11963;DHT22;62678;52.130;5.584;2023-05-21T11:42:29;23.50;99.90
11963;DHT22;62678;52.130;5.584;2023-05-21T11:44:57;23.40;99.90
11963;DHT22;62678;52.130;5.584;2023-05-21T11:47:25;23.60;99.90
11963;DHT22;62678;52.130;5.584;2023-05-21T11:49:54;23.80;99.90
11963;DHT22;62678;52.130;5.584;2023-05-21T11:52:21;23.80;99.90
11963;DHT22;62678;52.130;5.584;2023-05-21T11:54:50;23.50;99.90
11963;DHT22;62678;52.130;5.584;2023-05-21T11:57:20;23.40;99.90
11963;DHT22;62678;52.130;5.584;2023-05-21T11:59:48;23.40;99.90
11963;DHT22;62678;52.130;5.584;2023-05-21T12:02:16;23.60;99.90
11963;DHT22;62678;52.130;5.584;2023-05-21T12:04:44;23.40;99.90
11963;DHT22;62678;52.130;5.584;2023-05-21T12:07:13;23.10;99.90
11963;DHT22;62678;52.130;5.584;2023-05-21T12:09:41;23.20;99.90
11963;DHT22;62678;52.130;5.584;2023-05-21T12:12:09;23.40;99.90
11963;DHT22;62678;52.130;5.584;2023-05-21T12:14:38;23.50;99.90
11963;DHT22;62678;52.130;5.584;2023-05-21T12:17:05;23.80;99.90
11963;DHT22;62678;52.130;5.584;2023-05-21T12:19:32;23.90;99.90
11963;DHT22;62678;52.130;5.584;2023-05-21T12:22:01;23.80;99.90
11963;DHT22;62678;52.130;5.584;2023-05-21T12:24:30;23.90;99.90
11963;DHT22;62678;52.130;5.584;2023-05-21T12:26:57;23.90;99.90
11963;DHT22;62678;52.130;5.584;2023-05-21T12:29:25;23.80;99.90
11963;DHT22;62678;52.130;5.584;2023-05-21T12:31:52;24.00;99.90
11963;DHT22;62678;52.130;5.584;2023-05-21T12:34:39;24.20;99.90
11963;DHT22;62678;52.130;5.584;2023-05-21T12:37:07;24.30;99.90
11963;DHT22;62678;52.130;5.584;2023-05-21T12:39:39;24.10;99.90
11963;DHT22;62678;52.130;5.584;2023-05-21T12:42:07;24.00;99.90
11963;DHT22;62678;52.130;5.584;2023-05-21T12:44:34;24.20;99.90
11963;DHT22;62678;52.130;5.584;2023-05-21T12:47:02;24.20;99.90
11963;DHT22;62678;52.130;5.584;2023-05-21T12:49:37;24.40;99.90
11963;DHT22;62678;52.130;5.584;2023-05-21T12:52:07;24.10;99.90
11963;DHT22;62678;52.130;5.584;2023-05-21T12:54:35;24.40;99.90
11963;DHT22;62678;52.130;5.584;2023-05-21T12:57:08;24.40;99.90
11963;DHT22;62678;52.130;5.584;2023-05-21T12:59:46;24.40;99.90
11963;DHT22;62678;52.130;5.584;2023-05-21T13:02:21;24.40;99.90
11963;DHT22;62678;52.130;5.584;2023-05-21T13:04:49;24.70;99.90
11963;DHT22;62678;52.130;5.584;2023-05-21T13:07:19;24.70;99.90
11963;DHT22;62678;52.130;5.584;2023-05-21T13:09:46;24.90;99.90
11963;DHT22;62678;52.130;5.584;2023-05-21T13:12:14;24.70;99.90
11963;DHT22;62678;52.130;5.584;2023-05-21T13:14:41;24.70;99.90
11963;DHT22;62678;52.130;5.584;2023-05-21T13:17:08;25.10;99.90
11963;DHT22;62678;52.130;5.584;2023-05-21T13:19:35;25.20;99.90
11963;DHT22;62678;52.130;5.584;2023-05-21T13:22:02;25.10;99.90
11963;DHT22;62678;52.130;5.584;2023-05-21T13:24:29;25.50;99.90
11963;DHT22;62678;52.130;5.584;2023-05-21T13:26:56;25.70;99.90
11963;DHT22;62678;52.130;5.584;2023-05-21T13:29:24;25.30;99.90
11963;DHT22;62678;52.130;5.584;2023-05-21T13:31:51;25.20;99.90
11963;DHT22;62678;52.130;5.584;2023-05-21T13:34:18;25.30;99.90
11963;DHT22;62678;52.130;5.584;2023-05-21T13:36:45;24.90;99.90
11963;DHT22;62678;52.130;5.584;2023-05-21T13:39:12;24.90;99.90
11963;DHT22;62678;52.130;5.584;2023-05-21T13:41:39;24.80;99.90
11963;DHT22;62678;52.130;5.584;2023-05-21T13:44:07;24.90;99.90
11963;DHT22;62678;52.130;5.584;2023-05-21T13:46:35;24.40;99.90
11963;DHT22;62678;52.130;5.584;2023-05-21T13:49:04;24.70;99.90
11963;DHT22;62678;52.130;5.584;2023-05-21T13:51:34;25.00;99.90
11963;DHT22;62678;52.130;5.584;2023-05-21T13:54:01;24.90;99.90
11963;DHT22;62678;52.130;5.584;2023-05-21T13:56:31;24.80;99.90
11963;DHT22;62678;52.130;5.584;2023-05-21T13:59:05;24.70;99.90
11963;DHT22;62678;52.130;5.584;2023-05-21T14:01:35;25.00;99.90
11963;DHT22;62678;52.130;5.584;2023-05-21T14:04:02;25.00;99.90
11963;DHT22;62678;52.130;5.584;2023-05-21T14:06:30;25.20;99.90
11963;DHT22;62678;52.130;5.584;2023-05-21T14:09:00;25.20;99.90
11963;DHT22;62678;52.130;5.584;2023-05-21T14:11:28;25.30;99.90
11963;DHT22;62678;52.130;5.584;2023-05-21T14:13:54;25.10;99.90
11963;DHT22;62678;52.130;5.584;2023-05-21T14:16:21;25.40;99.90
11963;DHT22;62678;52.130;5.584;2023-05-21T14:18:51;25.50;99.90
11963;DHT22;62678;52.130;5.584;2023-05-21T14:21:18;25.50;99.90
11963;DHT22;62678;52.130;5.584;2023-05-21T14:23:45;25.70;99.90
11963;DHT22;62678;52.130;5.584;2023-05-21T14:26:13;25.60;99.90
11963;DHT22;62678;52.130;5.584;2023-05-21T14:28:40;25.40;99.90
11963;DHT22;62678;52.130;5.584;2023-05-21T14:31:07;25.60;99.90
11963;DHT22;62678;52.130;5.584;2023-05-21T14:33:35;25.90;99.90
11963;DHT22;62678;52.130;5.584;2023-05-21T14:36:04;25.80;99.90
11963;DHT22;62678;52.130;5.584;2023-05-21T14:38:31;26.50;99.90
11963;DHT22;62678;52.130;5.584;2023-05-21T14:40:58;26.60;99.90
11963;DHT22;62678;52.130;5.584;2023-05-21T14:43:25;26.70;99.90
11963;DHT22;62678;52.130;5.584;2023-05-21T14:45:51;26.70;99.90
11963;DHT22;62678;52.130;5.584;2023-05-21T14:48:19;27.30;99.90
11963;DHT22;62678;52.130;5.584;2023-05-21T14:50:48;27.80;99.90
11963;DHT22;62678;52.130;5.584;2023-05-21T14:53:17;28.10;99.90
11963;DHT22;62678;52.130;5.584;2023-05-21T14:55:45;28.30;99.90
11963;DHT22;62678;52.130;5.584;2023-05-21T14:58:12;28.10;99.90
11963;DHT22;62678;52.130;5.584;2023-05-21T15:00:39;27.90;99.90
11963;DHT22;62678;52.130;5.584;2023-05-21T15:03:06;28.10;99.90
11963;DHT22;62678;52.130;5.584;2023-05-21T15:05:33;27.80;99.90
11963;DHT22;62678;52.130;5.584;2023-05-21T15:08:03;27.90;99.90
11963;DHT22;62678;52.130;5.584;2023-05-21T15:10:34;29.00;99.90
11963;DHT22;62678;52.130;5.584;2023-05-21T15:13:01;28.90;99.90
11963;DHT22;62678;52.130;5.584;2023-05-21T15:15:28;28.80;99.90
11963;DHT22;62678;52.130;5.584;2023-05-21T15:17:55;28.40;99.90
11963;DHT22;62678;52.130;5.584;2023-05-21T15:20:22;28.30;99.90
11963;DHT22;62678;52.130;5.584;2023-05-21T15:22:49;28.60;99.90
11963;DHT22;62678;52.130;5.584;2023-05-21T15:25:16;28.70;99.90
11963;DHT22;62678;52.130;5.584;2023-05-21T15:27:45;29.30;99.90
11963;DHT22;62678;52.130;5.584;2023-05-21T15:30:12;28.30;99.90
11963;DHT22;62678;52.130;5.584;2023-05-21T15:32:38;28.70;99.90
11963;DHT22;62678;52.130;5.584;2023-05-21T15:35:06;28.70;99.90
11963;DHT22;62678;52.130;5.584;2023-05-21T15:37:33;28.80;99.90
11963;DHT22;62678;52.130;5.584;2023-05-21T15:40:00;29.60;99.90